Time;durP1;ratioP1;P1;durP2;ratioP2;P2;SDS_P1;SDS_P2;PMS_P1;PMS_P2;Temp;Humidity;BMP_temperature;BMP_pressure;BME280_temperature;BME280_humidity;BME280_pressure;Samples;Min_cycle;Max_cycle;Signal;HPM_P1;HPM_P2
2022/01/27 00:01:46;;;;;;;;;13.80;12.60;;;;;3.52;85.51;101036.53;5108672;28;8893;-61
2022/01/27 00:04:17;;;;;;;;;12.80;12.00;;;;;3.52;85.79;101031.25;5109851;27;8852;-61
2022/01/27 00:06:45;;;;;;;;;17.60;15.40;;;;;3.52;86.12;101023.34;5109435;28;8943;-63
2022/01/27 00:09:19;;;;;;;;;9.00;5.60;;;;;3.54;85.81;101020.69;5108374;28;8865;-63
2022/01/27 00:11:48;;;;;;;;;6.40;3.80;;;;;3.55;85.81;101009.25;5109020;27;8876;-61
2022/01/27 00:14:18;;;;;;;;;13.80;12.40;;;;;3.54;86.20;101020.69;5129008;27;8942;-63
2022/01/27 00:16:54;;;;;;;;;14.20;10.60;;;;;3.54;86.16;101016.25;5114012;27;8828;-65
2022/01/27 00:19:22;;;;;;;;;14.60;12.80;;;;;3.56;86.15;101014.44;5110295;28;8958;-63
2022/01/27 00:21:50;;;;;;;;;11.00;9.80;;;;;3.56;86.06;100996.00;5107630;27;10306;-65
2022/01/27 00:24:18;;;;;;;;;10.00;9.60;;;;;3.58;85.63;100995.97;5107246;27;8840;-63
2022/01/27 00:26:46;;;;;;;;;10.40;9.60;;;;;3.58;85.36;100995.97;5112269;27;8830;-62
2022/01/27 00:29:13;;;;;;;;;16.00;12.00;;;;;3.58;85.47;100996.84;5113051;27;9050;-63
2022/01/27 00:31:41;;;;;;;;;7.80;6.80;;;;;3.59;85.63;100998.53;5108539;27;8940;-60
2022/01/27 00:34:09;;;;;;;;;19.40;18.60;;;;;3.60;85.60;100999.38;5108083;28;8847;-63
2022/01/27 00:36:37;;;;;;;;;11.40;9.40;;;;;3.62;85.55;100984.41;5123453;27;9756;-61
2022/01/27 00:39:05;;;;;;;;;10.40;9.60;;;;;3.61;85.56;100967.75;5129956;27;8960;-61
2022/01/27 00:41:33;;;;;;;;;3.80;3.20;;;;;3.61;85.42;100974.78;5129453;27;8845;-60
2022/01/27 00:44:01;;;;;;;;;18.00;16.20;;;;;3.60;85.42;100979.19;5120632;27;8843;-61
2022/01/27 00:46:32;;;;;;;;;10.20;8.80;;;;;3.60;85.63;100973.94;5118854;27;8840;-63
2022/01/27 00:48:59;;;;;;;;;13.20;12.00;;;;;3.60;85.34;100967.78;5108219;28;8909;-63
2022/01/27 00:51:31;;;;;;;;;18.20;12.60;;;;;3.59;85.38;100950.28;5123374;27;9579;-62
2022/01/27 00:54:05;;;;;;;;;9.40;7.00;;;;;3.57;84.97;100945.06;5109241;28;8861;-60
2022/01/27 00:56:40;;;;;;;;;4.80;4.80;;;;;3.54;85.24;100937.28;5110924;27;8966;-62
2022/01/27 00:59:24;;;;;;;;;12.60;10.00;;;;;3.53;85.13;100930.31;5109719;27;8955;-62
2022/01/27 01:02:00;;;;;;;;;14.60;11.60;;;;;3.50;85.15;100930.41;5109554;27;8858;-62
2022/01/27 01:04:33;;;;;;;;;9.40;7.80;;;;;3.47;84.92;100922.63;5108845;28;8859;-63
2022/01/27 01:07:01;;;;;;;;;13.20;11.20;;;;;3.46;85.47;100922.66;5109155;27;8940;-63
2022/01/27 01:14:58;;;;;;;;;10.20;8.80;;;;;3.40;85.46;100952.69;5109002;28;8978;-62
2022/01/27 01:17:33;;;;;;;;;16.40;14.60;;;;;3.39;85.02;100948.34;5118708;27;8981;-62
2022/01/27 01:31:11;;;;;;;;;11.80;11.00;;;;;3.29;85.04;100952.22;5108555;28;8855;-62
2022/01/27 01:33:40;;;;;;;;;9.60;9.40;;;;;3.25;85.58;100953.22;5123574;27;8906;-62
2022/01/27 01:36:16;;;;;;;;;11.20;10.20;;;;;3.21;85.62;100967.41;5129315;27;8845;-62
2022/01/27 01:38:43;;;;;;;;;16.00;13.20;;;;;3.18;85.41;100943.81;5109461;28;8840;-62
2022/01/27 01:41:11;;;;;;;;;9.00;7.80;;;;;3.15;85.57;100932.53;5108532;28;8858;-60
2022/01/27 01:43:39;;;;;;;;;5.60;3.40;;;;;3.13;85.21;100926.47;5121026;27;8842;-62
2022/01/27 01:46:08;;;;;;;;;10.80;10.80;;;;;3.11;84.90;100941.44;5129414;27;9534;-62
2022/01/27 01:48:36;;;;;;;;;12.60;11.20;;;;;3.10;84.63;100945.00;5126609;27;8949;-62
2022/01/27 01:51:04;;;;;;;;;12.60;10.80;;;;;3.07;85.10;100953.84;5116844;27;8844;-60
2022/01/27 01:53:31;;;;;;;;;17.20;13.40;;;;;3.06;84.80;100965.28;5112461;28;8844;-60
2022/01/27 01:55:59;;;;;;;;;16.00;12.00;;;;;3.05;85.41;100950.41;5112243;28;8835;-61
2022/01/27 01:58:27;;;;;;;;;10.00;9.00;;;;;3.04;84.86;100940.78;5112553;28;8856;-60
2022/01/27 02:00:55;;;;;;;;;19.00;16.40;;;;;3.05;85.24;100936.38;5112416;28;8855;-61
2022/01/27 02:03:23;;;;;;;;;15.00;13.40;;;;;3.03;84.97;100939.06;5110927;28;8839;-62
2022/01/27 02:05:55;;;;;;;;;0.40;0.40;;;;;3.02;84.58;100933.88;5112003;27;8859;-60
2022/01/27 02:08:44;;;;;;;;;9.80;9.60;;;;;3.01;84.89;100930.38;5116677;27;8822;-62
2022/01/27 02:19:27;;;;;;;;;7.60;6.40;;;;;3.00;84.88;100906.72;5131399;27;8867;-62
2022/01/27 02:21:57;;;;;;;;;9.60;9.60;;;;;3.00;84.93;100902.34;5110843;27;8875;-60
2022/01/27 02:24:24;;;;;;;;;10.80;7.80;;;;;3.01;84.87;100913.72;5111535;28;8848;-61
2022/01/27 02:26:53;;;;;;;;;14.60;13.40;;;;;3.02;84.70;100905.78;5111349;27;8998;-62
2022/01/27 02:29:20;;;;;;;;;10.80;9.20;;;;;3.03;84.82;100904.84;5111075;28;8967;-63
2022/01/27 02:31:48;;;;;;;;;12.40;10.80;;;;;3.04;84.84;100898.69;5111744;27;9518;-62
2022/01/27 02:34:16;;;;;;;;;10.40;7.60;;;;;3.07;84.73;100882.81;5127810;27;8970;-63
2022/01/27 02:36:44;;;;;;;;;14.60;12.40;;;;;3.10;84.44;100872.16;5131153;27;8902;-63
2022/01/27 02:39:11;;;;;;;;;9.00;9.00;;;;;3.11;84.04;100867.78;5129918;27;8830;-62
2022/01/27 02:41:39;;;;;;;;;12.60;11.20;;;;;3.13;84.39;100856.28;5131585;27;8936;-62
2022/01/27 02:44:07;;;;;;;;;13.40;13.40;;;;;3.15;84.07;100854.47;5130660;27;8853;-60
2022/01/27 02:46:36;;;;;;;;;11.80;11.20;;;;;3.18;84.23;100859.59;5119358;27;8980;-62
2022/01/27 02:49:04;;;;;;;;;17.60;12.00;;;;;3.20;84.60;100872.72;5126427;27;8824;-62
2022/01/27 02:51:31;;;;;;;;;9.60;9.20;;;;;3.22;83.92;100871.75;5130073;27;8830;-60
2022/01/27 02:53:59;;;;;;;;;6.40;4.40;;;;;3.24;84.39;100864.66;5130710;27;8834;-63
2022/01/27 02:56:27;;;;;;;;;9.40;7.80;;;;;3.26;84.01;100860.19;5129718;27;8854;-61
2022/01/27 02:58:55;;;;;;;;;4.60;4.00;;;;;3.27;84.36;100863.69;5127290;27;8845;-61
2022/01/27 03:01:23;;;;;;;;;9.20;8.40;;;;;3.27;83.56;100843.47;5123809;27;8918;-60
2022/01/27 03:03:51;;;;;;;;;14.00;12.00;;;;;3.28;83.69;100845.22;5131757;27;8841;-60
2022/01/27 03:06:19;;;;;;;;;2.20;1.80;;;;;3.27;83.71;100843.47;5130526;27;8826;-62
2022/01/27 03:08:47;;;;;;;;;11.20;7.00;;;;;3.27;83.56;100835.59;5116617;27;8836;-62
2022/01/27 03:11:15;;;;;;;;;17.20;13.80;;;;;3.27;83.99;100821.59;5123194;27;8977;-61
2022/01/27 03:13:42;;;;;;;;;10.40;9.00;;;;;3.26;83.92;100823.34;5129078;27;8833;-62
2022/01/27 03:16:11;;;;;;;;;2.80;1.40;;;;;3.25;83.67;100831.31;5127513;27;8853;-61
2022/01/27 03:18:38;;;;;;;;;11.20;8.40;;;;;3.26;83.58;100818.09;5127914;27;8952;-61
2022/01/27 03:21:06;;;;;;;;;12.40;9.60;;;;;3.25;84.39;100807.66;5128022;27;9264;-62
2022/01/27 03:23:35;;;;;;;;;5.60;4.80;;;;;3.25;83.61;100815.53;5112007;27;8850;-60
2022/01/27 03:26:03;;;;;;;;;10.60;8.20;;;;;3.25;83.50;100828.69;5127856;27;8834;-63
2022/01/27 03:28:31;;;;;;;;;14.80;11.60;;;;;3.26;83.47;100839.16;5126419;27;8934;-63
2022/01/27 03:30:59;;;;;;;;;18.60;15.60;;;;;3.26;83.97;100836.50;5116372;27;8835;-61
2022/01/27 03:33:27;;;;;;;;;15.60;12.00;;;;;3.26;83.53;100812.81;5109378;27;8854;-62
2022/01/27 03:35:55;;;;;;;;;7.80;6.60;;;;;3.26;84.00;100815.47;5108914;28;8844;-63
2022/01/27 03:38:22;;;;;;;;;11.60;11.20;;;;;3.27;84.01;100821.59;5107862;28;8832;-63
2022/01/27 03:40:50;;;;;;;;;11.80;9.00;;;;;3.27;83.54;100819.81;5120690;27;8829;-61
2022/01/27 03:43:18;;;;;;;;;9.20;9.20;;;;;3.28;83.77;100845.22;5129993;27;8845;-63
2022/01/27 03:45:46;;;;;;;;;11.60;10.00;;;;;3.28;84.05;100847.88;5129556;27;8857;-60
2022/01/27 03:48:14;;;;;;;;;13.00;12.40;;;;;3.30;83.16;100847.78;5112493;27;9485;-63
2022/01/27 03:50:42;;;;;;;;;12.00;11.20;;;;;3.31;84.05;100846.88;5107998;28;8985;-65
2022/01/27 03:53:11;;;;;;;;;10.60;8.60;;;;;3.31;83.51;100849.50;5107801;27;9481;-61
2022/01/27 03:55:39;;;;;;;;;13.80;12.20;;;;;3.32;84.00;100838.94;5112820;27;8830;-60
2022/01/27 03:58:07;;;;;;;;;12.40;8.20;;;;;3.33;83.86;100838.00;5131264;27;8984;-62
2022/01/27 04:00:34;;;;;;;;;11.60;10.00;;;;;3.34;83.58;100826.56;5130410;27;8963;-61
2022/01/27 04:03:05;;;;;;;;;10.80;10.80;;;;;3.34;84.02;100826.56;5114308;27;8936;-62
2022/01/27 04:05:36;;;;;;;;;0.40;0.00;;;;;3.35;83.93;100809.00;5109902;28;8960;-61
2022/01/27 04:08:04;;;;;;;;;12.00;10.80;;;;;3.35;83.99;100780.06;5109563;28;8990;-62
2022/01/27 04:10:32;;;;;;;;;7.00;6.00;;;;;3.36;83.90;100794.94;5108109;27;8908;-61
2022/01/27 04:13:00;;;;;;;;;11.60;10.60;;;;;3.37;83.81;100807.19;5126545;27;8849;-63
2022/01/27 04:15:29;;;;;;;;;4.00;3.20;;;;;3.38;83.51;100809.75;5128944;27;8845;-61
2022/01/27 04:17:56;;;;;;;;;13.80;12.00;;;;;3.39;83.35;100816.75;5126191;27;8848;-60
2022/01/27 04:20:24;;;;;;;;;4.80;4.00;;;;;3.39;84.07;100803.59;5127142;27;9498;-61
2022/01/27 04:22:52;;;;;;;;;10.00;9.20;;;;;3.42;83.80;100798.19;5128172;27;8848;-63
2022/01/27 04:25:23;;;;;;;;;16.60;14.80;;;;;3.43;83.66;100780.63;5129977;27;8852;-63
2022/01/27 04:27:54;;;;;;;;;15.60;11.20;;;;;3.44;83.58;100769.19;5116726;27;8848;-61
2022/01/27 04:30:24;;;;;;;;;11.20;10.80;;;;;3.45;83.53;100768.28;5119110;27;8998;-62
2022/01/27 04:32:55;;;;;;;;;11.00;10.40;;;;;3.45;83.63;100755.09;5108046;28;8979;-62
2022/01/27 04:35:27;;;;;;;;;10.00;9.20;;;;;3.45;83.83;100763.88;5115252;27;8853;-62
2022/01/27 04:38:09;;;;;;;;;9.40;7.20;;;;;3.45;83.61;100749.84;5129576;27;8892;-60
2022/01/27 04:40:43;;;;;;;;;8.40;8.20;;;;;3.46;83.13;100755.06;5122917;27;9008;-61
2022/01/27 04:43:20;;;;;;;;;14.20;12.40;;;;;3.48;83.64;100757.66;5109177;28;8832;-61
2022/01/27 04:45:56;;;;;;;;;2.60;1.00;;;;;3.49;83.38;100765.47;5108635;28;8820;-61
2022/01/27 04:48:25;;;;;;;;;10.00;9.80;;;;;3.52;83.46;100757.47;5126447;27;9205;-62
2022/01/27 04:50:54;;;;;;;;;3.40;3.40;;;;;3.55;83.20;100754.69;5128172;27;8851;-63
2022/01/27 04:53:28;;;;;;;;;4.80;4.40;;;;;3.57;83.05;100742.34;5128318;27;9510;-62
2022/01/27 04:56:17;;;;;;;;;13.20;7.40;;;;;3.59;83.22;100737.88;5127534;27;8956;-63
2022/01/27 04:58:47;;;;;;;;;20.60;17.40;;;;;3.61;83.04;100722.88;5129167;27;8842;-61
2022/01/27 05:01:17;;;;;;;;;12.20;10.60;;;;;3.65;82.92;100713.09;5115325;27;8832;-62
2022/01/27 05:03:49;;;;;;;;;16.20;13.80;;;;;3.66;82.77;100699.88;5108496;28;8826;-60
2022/01/27 05:06:19;;;;;;;;;6.20;4.40;;;;;3.67;82.98;100697.16;5108381;27;8982;-63
2022/01/27 05:08:47;;;;;;;;;15.20;12.80;;;;;3.69;83.18;100696.25;5126488;27;9719;-61
2022/01/27 05:11:22;;;;;;;;;7.80;7.00;;;;;3.72;82.97;100680.34;5124037;27;8837;-60
2022/01/27 05:13:54;;;;;;;;;12.40;12.40;;;;;3.73;83.16;100682.91;5128895;27;8983;-61
2022/01/27 05:16:22;;;;;;;;;9.00;9.00;;;;;3.75;82.97;100686.34;5122479;27;8832;-61
2022/01/27 05:18:50;;;;;;;;;15.00;13.00;;;;;3.76;82.95;100685.41;5106682;28;8835;-61
2022/01/27 05:21:18;;;;;;;;;15.60;12.20;;;;;3.79;82.79;100677.38;5106222;27;8862;-61
2022/01/27 05:23:47;;;;;;;;;12.20;12.00;;;;;3.81;82.78;100662.38;5126971;27;8844;-63
2022/01/27 05:26:15;;;;;;;;;4.60;3.20;;;;;3.82;82.60;100649.13;5126887;27;8853;-62
2022/01/27 05:28:42;;;;;;;;;10.20;8.60;;;;;3.84;82.85;100641.19;5119547;28;8975;-62
2022/01/27 05:31:10;;;;;;;;;13.00;12.60;;;;;3.89;82.48;100644.50;5114555;27;8853;-62
2022/01/27 05:33:38;;;;;;;;;8.20;8.20;;;;;3.92;82.92;100654.88;5109587;28;8899;-63
2022/01/27 05:36:06;;;;;;;;;11.60;10.80;;;;;3.97;82.52;100668.75;5113579;27;8838;-61
2022/01/27 05:38:35;;;;;;;;;8.80;7.60;;;;;4.02;82.65;100661.47;5124519;27;9567;-62
2022/01/27 05:41:03;;;;;;;;;6.60;6.60;;;;;4.09;82.48;100669.09;5123938;27;8956;-62
2022/01/27 05:43:31;;;;;;;;;17.80;12.00;;;;;4.13;82.56;100654.00;5126241;27;8983;-63
2022/01/27 05:45:59;;;;;;;;;12.40;11.60;;;;;4.15;82.41;100650.38;5126422;27;8857;-62
2022/01/27 05:48:27;;;;;;;;;6.80;3.40;;;;;4.19;82.20;100656.38;5126838;27;8930;-62
2022/01/27 05:50:54;;;;;;;;;6.80;5.60;;;;;4.21;82.11;100630.81;5119438;28;8844;-63
2022/01/27 05:53:22;;;;;;;;;10.80;9.80;;;;;4.23;82.27;100624.56;5104997;28;8859;-63
2022/01/27 05:55:50;;;;;;;;;10.00;9.80;;;;;4.24;82.12;100618.38;5104009;28;8932;-62
2022/01/27 05:58:18;;;;;;;;;10.60;9.40;;;;;4.28;81.84;100627.00;5103037;28;8860;-61
2022/01/27 06:00:45;;;;;;;;;10.00;8.60;;;;;4.30;82.28;100611.97;5109528;28;8831;-62
2022/01/27 06:03:13;;;;;;;;;10.00;9.40;;;;;4.32;82.18;100613.63;5105736;28;8897;-63
2022/01/27 06:05:43;;;;;;;;;8.80;7.60;;;;;4.35;82.00;100607.34;5106658;27;8844;-63
2022/01/27 06:08:10;;;;;;;;;8.20;8.20;;;;;4.39;81.75;100598.38;5122529;27;8854;-63
2022/01/27 06:10:38;;;;;;;;;10.80;8.60;;;;;4.43;82.16;100597.31;5125603;27;8953;-61
2022/01/27 06:13:06;;;;;;;;;9.80;9.20;;;;;4.47;81.62;100605.03;5124523;27;8842;-63
2022/01/27 06:15:34;;;;;;;;;10.00;9.80;;;;;4.50;82.18;100590.84;5122063;27;9161;-61
2022/01/27 06:18:02;;;;;;;;;6.60;5.60;;;;;4.54;81.77;100606.47;5118353;27;9324;-62
2022/01/27 06:20:31;;;;;;;;;9.00;7.40;;;;;4.56;81.81;100595.88;5119870;27;9654;-62
2022/01/27 06:22:59;;;;;;;;;14.80;11.80;;;;;4.59;81.63;100587.81;5116086;27;8922;-63
2022/01/27 06:25:32;;;;;;;;;12.00;10.00;;;;;4.62;81.84;100572.69;5119446;27;8853;-61
2022/01/27 06:28:00;;;;;;;;;9.60;8.60;;;;;4.65;81.87;100575.19;5117614;27;8994;-61
2022/01/27 06:30:28;;;;;;;;;7.20;5.20;;;;;4.69;82.04;100578.53;5117279;27;9085;-62
2022/01/27 06:32:56;;;;;;;;;6.00;5.60;;;;;4.70;81.79;100583.75;5117278;27;9146;-62
2022/01/27 06:35:24;;;;;;;;;15.80;15.40;;;;;4.73;81.67;100575.69;5119155;27;8853;-63
2022/01/27 06:37:52;;;;;;;;;5.80;0.80;;;;;4.75;81.72;100558.03;5122060;27;8964;-62
2022/01/27 06:40:20;;;;;;;;;9.20;6.60;;;;;4.78;81.56;100559.69;5120939;27;8849;-62
2022/01/27 06:42:48;;;;;;;;;11.60;10.00;;;;;4.81;81.59;100570.06;5119029;27;9575;-63
2022/01/27 06:45:15;;;;;;;;;7.80;7.00;;;;;4.81;81.90;100552.47;5119398;27;8857;-63
2022/01/27 06:47:43;;;;;;;;;12.40;11.40;;;;;4.83;81.41;100541.84;5118517;27;8884;-61
2022/01/27 06:50:11;;;;;;;;;12.80;12.00;;;;;4.83;81.30;100547.97;5115133;27;9530;-63
2022/01/27 06:52:41;;;;;;;;;6.80;5.60;;;;;4.84;81.43;100544.41;5119532;27;8853;-63
2022/01/27 06:55:09;;;;;;;;;12.00;9.40;;;;;4.85;81.09;100539.97;5120630;27;8853;-63
2022/01/27 06:57:37;;;;;;;;;13.00;11.40;;;;;4.84;81.34;100518.03;5120086;27;8853;-63
2022/01/27 07:00:04;;;;;;;;;12.80;10.60;;;;;4.84;81.69;100522.44;5118992;27;8841;-63
2022/01/27 07:02:32;;;;;;;;;7.20;6.00;;;;;4.85;81.18;100545.25;5117345;27;8845;-62
2022/01/27 07:05:00;;;;;;;;;15.00;8.20;;;;;4.84;81.36;100549.69;5117620;27;9608;-63
2022/01/27 07:07:28;;;;;;;;;4.00;3.00;;;;;4.84;81.31;100538.25;5117468;27;8841;-62
2022/01/27 07:09:56;;;;;;;;;12.60;10.80;;;;;4.85;81.26;100547.88;5116149;27;9161;-62
2022/01/27 07:12:24;;;;;;;;;0.40;0.40;;;;;4.86;81.44;100552.25;5119129;27;8845;-62
2022/01/27 07:14:53;;;;;;;;;12.00;9.80;;;;;4.87;81.70;100551.34;5116977;27;9000;-62
2022/01/27 07:17:22;;;;;;;;;3.40;2.60;;;;;4.88;81.64;100548.59;5115783;27;8995;-61
2022/01/27 07:19:49;;;;;;;;;1.00;1.00;;;;;4.90;81.27;100554.69;5114977;27;8967;-62
2022/01/27 07:22:17;;;;;;;;;6.40;6.40;;;;;4.91;81.64;100543.19;5116386;27;9507;-63
2022/01/27 07:24:46;;;;;;;;;12.00;11.60;;;;;4.93;81.66;100540.50;5116649;27;8849;-61
2022/01/27 07:27:15;;;;;;;;;5.60;5.60;;;;;4.94;81.63;100526.38;5116671;27;8869;-61
2022/01/27 07:29:43;;;;;;;;;10.20;9.20;;;;;4.95;81.34;100530.72;5119240;27;8845;-63
2022/01/27 07:32:11;;;;;;;;;12.80;11.20;;;;;4.96;81.70;100529.78;5119209;27;8845;-63
2022/01/27 07:34:45;;;;;;;;;13.00;10.00;;;;;4.98;81.33;100525.28;5116966;27;8841;-62
2022/01/27 07:37:12;;;;;;;;;9.80;7.80;;;;;5.01;81.54;100525.16;5117214;27;8849;-61
2022/01/27 07:39:40;;;;;;;;;5.40;5.40;;;;;5.04;81.89;100520.59;5117436;27;9587;-62
2022/01/27 07:42:08;;;;;;;;;8.00;7.20;;;;;5.07;80.93;100516.91;5119479;27;8838;-62
2022/01/27 07:44:36;;;;;;;;;6.40;6.40;;;;;5.08;81.59;100516.84;5117498;27;8834;-63
2022/01/27 07:47:06;;;;;;;;;11.60;10.80;;;;;5.08;81.32;100500.19;5119318;27;9133;-63
2022/01/27 07:49:34;;;;;;;;;9.20;8.20;;;;;5.10;81.42;100508.88;5120125;27;8849;-61
2022/01/27 07:52:01;;;;;;;;;7.60;4.00;;;;;5.09;81.54;100502.72;5118016;27;9201;-62
2022/01/27 07:54:30;;;;;;;;;11.60;8.80;;;;;5.08;81.77;100501.03;5121048;27;8972;-61
2022/01/27 07:56:58;;;;;;;;;9.60;7.40;;;;;5.08;81.20;100498.38;5117105;27;8885;-63
2022/01/27 07:59:25;;;;;;;;;12.40;12.00;;;;;5.10;81.77;100482.47;5117501;27;8857;-63
2022/01/27 08:01:54;;;;;;;;;12.40;12.40;;;;;5.12;81.73;100488.53;5117553;27;8872;-62
2022/01/27 08:04:21;;;;;;;;;12.40;11.20;;;;;5.13;81.46;100487.59;5117875;27;8849;-61
2022/01/27 08:06:49;;;;;;;;;7.80;6.00;;;;;5.14;81.59;100495.44;5115535;27;8965;-63
2022/01/27 08:09:18;;;;;;;;;12.20;10.80;;;;;5.14;81.83;100502.50;5114762;27;8857;-62
2022/01/27 08:11:45;;;;;;;;;6.60;4.80;;;;;5.13;81.80;100503.44;5115574;27;8834;-62
2022/01/27 08:14:13;;;;;;;;;9.80;6.20;;;;;5.11;82.18;100500.03;5113133;27;8894;-63
2022/01/27 08:16:41;;;;;;;;;12.60;9.20;;;;;5.11;81.71;100494.75;5116508;27;8853;-62
2022/01/27 08:19:09;;;;;;;;;9.80;8.60;;;;;5.11;82.13;100503.53;5116429;27;8841;-63
2022/01/27 08:21:37;;;;;;;;;9.20;8.60;;;;;5.10;82.17;100503.59;5109812;27;9509;-63
2022/01/27 08:24:05;;;;;;;;;6.00;6.00;;;;;5.07;82.33;100519.56;5110428;27;8880;-63
2022/01/27 08:26:37;;;;;;;;;14.80;14.20;;;;;5.01;82.01;100519.88;5111135;27;8853;-61
2022/01/27 08:29:11;;;;;;;;;22.40;16.40;;;;;4.93;82.83;100528.13;5115803;27;9521;-62
2022/01/27 08:31:54;;;;;;;;;11.60;10.60;;;;;4.88;82.99;100519.56;5113892;27;8845;-60
2022/01/27 08:34:29;;;;;;;;;9.60;9.60;;;;;4.85;82.94;100516.22;5112532;27;8853;-62
2022/01/27 08:36:57;;;;;;;;;10.40;8.00;;;;;4.81;83.37;100512.91;5113666;27;8857;-63
2022/01/27 08:39:25;;;;;;;;;7.40;6.00;;;;;4.80;83.73;100499.78;5115598;27;8926;-62
2022/01/27 08:41:53;;;;;;;;;6.60;6.40;;;;;4.79;83.70;100506.00;5117582;27;8836;-62
2022/01/27 08:44:21;;;;;;;;;13.80;12.40;;;;;4.77;83.76;100511.31;5113662;27;9266;-62
2022/01/27 08:46:48;;;;;;;;;6.00;3.20;;;;;4.78;83.64;100517.47;5116052;27;8849;-62
2022/01/27 08:49:21;;;;;;;;;9.40;9.00;;;;;4.76;83.96;100507.00;5114076;27;9514;-61
2022/01/27 08:51:54;;;;;;;;;13.80;12.20;;;;;4.77;84.28;100515.72;5118423;27;8853;-62
2022/01/27 08:54:22;;;;;;;;;7.40;6.00;;;;;4.77;84.27;100505.19;5117476;27;8854;-61
2022/01/27 08:56:50;;;;;;;;;12.80;12.00;;;;;4.77;84.37;100505.19;5113898;27;9123;-61
2022/01/27 08:59:18;;;;;;;;;8.60;7.40;;;;;4.77;84.24;100499.91;5114490;27;8849;-62
2022/01/27 09:01:46;;;;;;;;;10.60;9.40;;;;;4.79;84.72;100503.34;5113327;27;8857;-62
2022/01/27 09:04:14;;;;;;;;;9.00;8.60;;;;;4.79;84.15;100503.34;5117132;27;8892;-64
2022/01/27 09:06:42;;;;;;;;;12.60;10.40;;;;;4.79;84.64;100508.63;5119290;27;8850;-63
2022/01/27 09:09:10;;;;;;;;;10.60;6.60;;;;;4.81;85.02;100507.63;5111772;27;8861;-63
2022/01/27 09:11:39;;;;;;;;;2.80;2.20;;;;;4.82;84.71;100504.06;5115428;27;8844;-62
2022/01/27 09:14:08;;;;;;;;;5.20;5.20;;;;;4.83;84.76;100504.91;5114776;27;9164;-62
2022/01/27 09:16:36;;;;;;;;;11.40;9.80;;;;;4.82;84.97;100500.56;5113602;27;8938;-61
2022/01/27 09:19:12;;;;;;;;;11.80;10.40;;;;;4.85;85.15;100503.03;5116588;27;9519;-63
2022/01/27 09:21:44;;;;;;;;;9.40;9.00;;;;;4.85;85.45;100500.41;5114394;27;9161;-61
2022/01/27 09:24:15;;;;;;;;;9.00;6.60;;;;;4.87;85.34;100493.28;5113453;27;8853;-63
2022/01/27 09:26:51;;;;;;;;;11.20;11.20;;;;;4.86;85.26;100500.34;5113861;27;9203;-63
2022/01/27 09:29:19;;;;;;;;;8.00;7.40;;;;;4.89;85.33;100501.97;5114249;27;8872;-62
2022/01/27 09:31:47;;;;;;;;;7.60;6.40;;;;;4.90;85.68;100506.31;5115193;27;8833;-63
2022/01/27 09:34:15;;;;;;;;;6.20;5.60;;;;;4.91;85.46;100503.63;5113871;27;9117;-62
2022/01/27 09:36:42;;;;;;;;;7.00;5.60;;;;;4.93;85.89;100496.47;5113854;27;9246;-63
2022/01/27 09:39:10;;;;;;;;;0.20;0.00;;;;;4.95;85.71;100497.25;5114639;27;8841;-63
2022/01/27 09:41:40;;;;;;;;;11.20;9.40;;;;;4.97;86.12;100507.75;5112160;27;8880;-61
2022/01/27 09:44:11;;;;;;;;;6.40;4.00;;;;;4.98;85.81;100505.03;5111562;27;8842;-62
2022/01/27 09:46:41;;;;;;;;;12.00;9.00;;;;;5.00;86.02;100512.84;5114387;27;9273;-61
2022/01/27 09:49:14;;;;;;;;;8.60;7.00;;;;;5.01;86.24;100502.25;5112447;27;9268;-61
2022/01/27 09:51:44;;;;;;;;;8.20;7.40;;;;;5.02;85.88;100498.66;5114663;27;8877;-61
2022/01/27 09:54:12;;;;;;;;;6.80;6.00;;;;;5.04;86.32;100494.19;5113172;27;8850;-61
2022/01/27 09:56:41;;;;;;;;;7.80;6.40;;;;;5.06;85.80;100499.38;5113226;27;9203;-62
2022/01/27 09:59:14;;;;;;;;;4.00;3.00;;;;;5.10;85.86;100487.75;5112648;27;9510;-62
2022/01/27 10:01:43;;;;;;;;;6.00;5.60;;;;;5.15;86.26;100486.59;5112450;27;9633;-61
2022/01/27 10:04:10;;;;;;;;;4.00;4.00;;;;;5.22;86.37;100489.78;5112190;27;8846;-66
2022/01/27 10:06:40;;;;;;;;;3.40;3.40;;;;;5.27;86.40;100479.84;5119052;27;8837;-61
2022/01/27 10:09:08;;;;;;;;;5.80;5.80;;;;;5.32;86.05;100485.78;5114152;27;9087;-62
2022/01/27 10:11:36;;;;;;;;;4.60;3.80;;;;;5.34;85.65;100487.41;5114264;27;9120;-63
2022/01/27 10:14:04;;;;;;;;;3.00;3.00;;;;;5.38;85.95;100480.19;5119636;27;9106;-63
2022/01/27 10:16:34;;;;;;;;;5.60;4.00;;;;;5.41;85.83;100485.31;5117302;27;8850;-62
2022/01/27 10:19:02;;;;;;;;;7.60;6.80;;;;;5.43;85.91;100491.34;5120127;27;9600;-60
2022/01/27 10:21:30;;;;;;;;;5.60;4.00;;;;;5.44;85.98;100483.38;5120108;27;8868;-62
2022/01/27 10:23:58;;;;;;;;;7.40;7.00;;;;;5.46;86.18;100481.50;5119102;27;9227;-63
2022/01/27 10:26:31;;;;;;;;;4.60;3.00;;;;;5.49;86.04;100477.84;5116863;27;8841;-62
2022/01/27 10:29:05;;;;;;;;;3.00;2.60;;;;;5.52;86.33;100472.41;5117050;27;8846;-63
2022/01/27 10:31:34;;;;;;;;;1.40;1.00;;;;;5.53;85.82;100480.25;5115894;27;9239;-64
2022/01/27 10:34:02;;;;;;;;;3.00;1.00;;;;;5.57;85.60;100473.03;5118336;27;8829;-61
2022/01/27 10:36:31;;;;;;;;;6.00;4.40;;;;;5.59;86.01;100465.88;5118202;27;8850;-61
2022/01/27 10:38:58;;;;;;;;;6.80;6.60;;;;;5.60;85.88;100478.16;5117138;27;9133;-62
2022/01/27 10:41:26;;;;;;;;;6.20;4.00;;;;;5.61;86.08;100471.97;5115972;27;8849;-63
2022/01/27 10:43:54;;;;;;;;;1.00;1.00;;;;;5.62;86.08;100474.50;5118170;27;8853;-63
2022/01/27 10:46:26;;;;;;;;;4.80;4.00;;;;;5.63;85.98;100472.72;5119372;27;8869;-63
2022/01/27 10:48:58;;;;;;;;;4.80;4.80;;;;;5.63;85.81;100467.44;5117887;27;8880;-62
2022/01/27 10:51:29;;;;;;;;;3.00;3.00;;;;;5.64;86.73;100467.38;5117428;27;8861;-62
2022/01/27 10:54:01;;;;;;;;;6.00;4.00;;;;;5.66;86.40;100462.00;5118084;27;9176;-62
2022/01/27 10:56:29;;;;;;;;;6.00;5.20;;;;;5.69;86.32;100469.78;5116868;27;8858;-62
2022/01/27 10:58:57;;;;;;;;;1.80;1.00;;;;;5.71;86.41;100467.91;5116174;27;8858;-61
2022/01/27 11:01:24;;;;;;;;;1.40;1.40;;;;;5.73;86.55;100464.25;5113158;27;8857;-62
2022/01/27 11:03:53;;;;;;;;;3.00;3.00;;;;;5.76;86.67;100465.91;5117067;27;8873;-62
2022/01/27 11:06:25;;;;;;;;;3.80;3.40;;;;;5.76;86.33;100461.44;5123339;27;8841;-63
2022/01/27 11:08:54;;;;;;;;;3.60;3.60;;;;;5.78;86.47;100456.09;5124221;27;8865;-63
2022/01/27 11:11:22;;;;;;;;;3.00;1.40;;;;;5.81;86.42;100453.31;5123236;27;8860;-62
2022/01/27 11:13:50;;;;;;;;;3.60;3.60;;;;;5.81;86.65;100458.59;5123719;27;8845;-63
2022/01/27 11:16:22;;;;;;;;;3.40;1.80;;;;;5.83;86.42;100446.16;5124410;27;8875;-64
2022/01/27 11:18:51;;;;;;;;;4.00;4.00;;;;;5.85;86.24;100447.78;5122259;27;8933;-62
2022/01/27 11:24:08;;;;;;;;;4.00;4.00;;;;;5.84;86.37;100456.66;5109953;27;8853;-62
2022/01/27 11:26:40;;;;;;;;;1.00;1.00;;;;;5.83;86.58;100454.94;5113815;27;9730;-62
2022/01/27 11:29:07;;;;;;;;;6.80;4.40;;;;;5.84;86.72;100445.25;5117084;27;8850;-62
2022/01/27 11:31:35;;;;;;;;;3.00;2.60;;;;;5.84;86.35;100445.25;5112601;27;9117;-62
2022/01/27 11:34:03;;;;;;;;;1.00;1.00;;;;;5.84;86.61;100445.25;5114411;27;8853;-64
2022/01/27 11:36:31;;;;;;;;;3.80;3.20;;;;;5.84;86.56;100434.69;5114777;27;8837;-63
2022/01/27 11:38:58;;;;;;;;;3.20;2.20;;;;;5.87;86.73;100429.22;5116009;27;8853;-61
2022/01/27 11:41:26;;;;;;;;;3.40;3.00;;;;;5.88;86.99;100436.19;5114308;27;9948;-63
2022/01/27 11:43:54;;;;;;;;;3.80;3.00;;;;;5.90;87.19;100444.91;5117049;27;8857;-62
2022/01/27 11:46:26;;;;;;;;;3.60;3.60;;;;;5.92;87.19;100437.75;5108390;27;9503;-62
2022/01/27 11:48:55;;;;;;;;;3.60;2.60;;;;;5.93;86.98;100435.03;5111111;27;9361;-61
2022/01/27 11:51:23;;;;;;;;;2.20;2.20;;;;;5.94;86.63;100430.59;5122590;27;9231;-63
2022/01/27 11:53:51;;;;;;;;;2.60;2.60;;;;;5.95;86.66;100424.38;5121835;27;9546;-62
2022/01/27 11:56:18;;;;;;;;;3.00;1.40;;;;;5.97;87.24;100419.84;5120961;27;8853;-64
2022/01/27 11:58:46;;;;;;;;;0.00;0.00;;;;;5.98;86.59;100411.84;5122889;27;8862;-62
2022/01/27 12:01:15;;;;;;;;;5.80;5.20;;;;;6.02;87.05;100420.47;5120459;27;8857;-62
2022/01/27 12:03:43;;;;;;;;;4.00;4.00;;;;;6.04;87.55;100418.59;5122698;27;8838;-62
2022/01/27 12:06:10;;;;;;;;;3.60;3.60;;;;;6.06;86.69;100425.50;5122246;27;8837;-63
2022/01/27 12:08:38;;;;;;;;;4.00;4.00;;;;;6.08;87.07;100417.50;5121661;27;8845;-61
2022/01/27 12:11:18;;;;;;;;;7.40;6.60;;;;;6.10;86.98;100410.34;5123129;27;8968;-62